ラスベガス の空港の天気 - METARとTAF

マッカラン国際空港 ( KLAS / LAS ) - アメリカ ネバダ州ラスベガス
飛行場実況気象(Metar)
観測時間09/18 15:56 PDT (09/18 22:56 UTC)
風向・風速西南西 7m/s 瞬間風速13m/s
視程10km以上
天気現象
少しの雲 雲底高度 3960m
全天の8割程度の雲 雲底高度 7320m
気温33.9℃
湿度12%
気圧1009.8hPa
METARKLAS 182256Z 24014G25KT 10SM FEW130 BKN240 34/00 A2990 RMK AO2 SLP098 T03390000
過去の天気等 Google飛行場航空写真 Wunderground天気予報

過去48時間のMETAR

飛行場予報(TAF)
発表時間: 9/18 16:20 PDT (9/18 23:20 UTC)
予報対象時間: 18日17時 PDT ~ 19日23時 PDT
風向・風速南西 7m/s 瞬間風速 12m/s
視程10km以上
少しの雲 雲底高度 4570m
18日20時 PDT から
風向・風速南南西 6m/s
視程10km以上
なし
19日5時 PDT から
風向・風速南 6m/s 瞬間風速 10m/s
視程10km以上
なし
19日10時 PDT から
風向・風速南南西 9m/s 瞬間風速 14m/s
視程10km以上
なし
19日20時 PDT から
風向・風速南南西 5m/s
視程10km以上
なし
KLAS 182320Z 1900/2006 22014G24KT P6SM FEW150
FM190300 21011KT P6SM SKC
FM191200 19012G20KT P6SM SKC
FM191700 21017G27KT P6SM SKC
FM200300 21010KT P6SM SKC